Time;durP1;ratioP1;P1;durP2;ratioP2;P2;SDS_P1;SDS_P2;PMS_P1;PMS_P2;Temp;Humidity;BMP_temperature;BMP_pressure;BME280_temperature;BME280_humidity;BME280_pressure;Samples;Min_cycle;Max_cycle;Signal;HPM_P1;HPM_P2
2021/08/30 00:00:43;;;;;;;5.93;5.37;;;14.10;99.90;;;;;;4996830;28;20226;-77
2021/08/30 00:03:08;;;;;;;5.83;5.33;;;14.10;99.90;;;;;;5014563;28;20658;-75
2021/08/30 00:05:34;;;;;;;6.33;5.80;;;14.10;99.90;;;;;;4996609;28;20274;-75
2021/08/30 00:07:59;;;;;;;6.00;5.47;;;14.10;99.90;;;;;;5014349;28;20221;-76
2021/08/30 00:10:26;;;;;;;6.10;5.50;;;14.10;99.90;;;;;;5014128;28;20224;-77
2021/08/30 00:12:52;;;;;;;6.03;5.53;;;14.10;99.90;;;;;;4996494;28;20696;-75
2021/08/30 00:15:18;;;;;;;7.47;6.20;;;14.10;99.90;;;;;;4997188;28;20171;-75
2021/08/30 00:17:45;;;;;;;6.10;5.60;;;14.10;99.90;;;;;;5014346;28;20169;-76
2021/08/30 00:20:15;;;;;;;6.13;5.63;;;14.10;99.90;;;;;;5014013;28;20322;-75
2021/08/30 00:22:42;;;;;;;7.80;5.10;;;14.10;99.90;;;;;;5013547;28;20556;-76
2021/08/30 00:25:09;;;;;;;5.73;5.23;;;14.10;99.90;;;;;;5014114;28;20179;-75
2021/08/30 00:27:34;;;;;;;5.83;5.33;;;14.10;99.90;;;;;;5014283;28;20175;-76
2021/08/30 00:30:00;;;;;;;6.83;5.50;;;14.10;99.90;;;;;;4996685;28;20250;-76
2021/08/30 00:32:26;;;;;;;5.03;4.63;;;14.10;99.90;;;;;;5013866;28;20222;-75
2021/08/30 00:34:52;;;;;;;5.87;5.37;;;14.10;99.90;;;;;;5013951;28;20683;-75
2021/08/30 00:37:18;;;;;;;6.27;5.77;;;14.10;99.90;;;;;;4996235;28;20175;-75
2021/08/30 00:39:45;;;;;;;5.37;4.90;;;14.10;99.90;;;;;;4996063;28;20222;-75
2021/08/30 00:42:11;;;;;;;5.60;5.20;;;14.10;99.90;;;;;;4996922;28;20179;-76
2021/08/30 00:44:37;;;;;;;5.17;4.23;;;14.00;99.90;;;;;;5013769;28;20241;-75
2021/08/30 00:47:03;;;;;;;5.63;5.13;;;14.00;99.90;;;;;;4996018;28;20198;-75
2021/08/30 00:49:28;;;;;;;5.10;4.60;;;14.10;99.90;;;;;;5013550;28;20195;-75
2021/08/30 00:51:55;;;;;;;4.10;3.80;;;14.00;99.90;;;;;;5013445;28;20194;-75
2021/08/30 00:54:21;;;;;;;4.60;4.20;;;14.00;99.90;;;;;;5013569;28;20202;-75
2021/08/30 00:56:48;;;;;;;5.30;4.83;;;13.90;99.90;;;;;;4995900;28;20172;-76
2021/08/30 00:59:14;;;;;;;4.60;4.20;;;13.90;99.90;;;;;;5013430;28;20302;-75
2021/08/30 01:01:41;;;;;;;4.93;4.50;;;13.80;99.90;;;;;;5013930;28;20198;-75
2021/08/30 01:04:11;;;;;;;4.73;4.30;;;13.80;99.90;;;;;;5013402;28;20179;-76
2021/08/30 01:07:08;;;;;;;4.57;4.17;;;13.80;99.90;;;;;;5007428;28;20185;-76
2021/08/30 01:09:36;;;;;;;4.97;4.57;;;13.90;99.90;;;;;;4982858;28;20203;-76
2021/08/30 01:12:10;;;;;;;5.17;4.77;;;13.90;99.90;;;;;;4998815;28;20203;-76
2021/08/30 01:14:42;;;;;;;7.30;5.67;;;13.90;99.90;;;;;;5000855;28;20250;-75
2021/08/30 01:17:09;;;;;;;6.80;6.10;;;13.90;99.90;;;;;;4996783;28;20175;-75
2021/08/30 01:19:41;;;;;;;6.57;5.57;;;14.00;99.90;;;;;;5014844;28;20268;-75
2021/08/30 01:22:10;;;;;;;4.90;4.40;;;13.90;99.90;;;;;;4995659;28;20178;-76
2021/08/30 01:24:36;;;;;;;5.23;4.80;;;13.90;99.90;;;;;;4995674;28;20760;-75
2021/08/30 01:27:04;;;;;;;5.90;5.40;;;14.00;99.90;;;;;;4996291;28;20277;-76
2021/08/30 01:29:40;;;;;;;5.63;5.13;;;14.00;99.90;;;;;;5013338;28;20214;-75
2021/08/30 01:32:26;;;;;;;6.17;5.67;;;13.90;99.90;;;;;;5013186;28;20191;-76
2021/08/30 01:34:53;;;;;;;6.50;6.00;;;14.00;99.90;;;;;;4998663;28;20174;-75
2021/08/30 01:37:19;;;;;;;6.90;6.23;;;14.00;99.90;;;;;;4999537;28;20589;-76
2021/08/30 01:39:46;;;;;;;6.87;6.27;;;13.90;99.90;;;;;;5019504;28;20198;-76
2021/08/30 01:42:11;;;;;;;6.83;6.00;;;13.90;99.90;;;;;;4989132;28;20187;-76
2021/08/30 01:44:40;;;;;;;7.50;6.43;;;13.90;99.90;;;;;;5015656;28;20645;-76
2021/08/30 01:47:07;;;;;;;7.10;6.40;;;14.00;99.90;;;;;;5014933;28;20171;-76
2021/08/30 01:49:33;;;;;;;8.00;7.30;;;13.90;99.90;;;;;;5014868;28;20285;-76
2021/08/30 01:51:59;;;;;;;7.87;7.03;;;13.90;99.90;;;;;;5016776;28;20274;-76
2021/08/30 01:54:25;;;;;;;8.30;7.37;;;13.90;99.90;;;;;;5016837;28;20209;-75
2021/08/30 01:56:54;;;;;;;8.20;7.50;;;13.90;99.90;;;;;;5016236;28;20182;-76
2021/08/30 02:02:07;;;;;;;8.83;7.93;;;13.90;99.90;;;;;;5016669;28;20178;-75
2021/08/30 02:04:33;;;;;;;9.80;8.80;;;13.90;99.90;;;;;;5016464;28;20174;-75
2021/08/30 02:06:59;;;;;;;9.20;8.33;;;13.90;99.90;;;;;;4998885;28;20704;-76
2021/08/30 02:09:26;;;;;;;9.37;8.37;;;13.90;99.90;;;;;;5016888;28;20203;-75
2021/08/30 02:11:51;;;;;;;9.80;8.90;;;13.90;99.90;;;;;;5016374;28;20206;-76
2021/08/30 02:14:19;;;;;;;9.77;8.77;;;13.90;99.90;;;;;;4998792;28;20561;-76
2021/08/30 02:16:51;;;;;;;9.53;8.53;;;13.90;99.90;;;;;;4998806;28;20637;-76
2021/08/30 02:19:39;;;;;;;9.80;8.90;;;13.90;99.90;;;;;;5016149;28;20179;-75
2021/08/30 02:22:19;;;;;;;10.50;9.60;;;13.90;99.90;;;;;;5016585;28;20179;-75
2021/08/30 02:24:54;;;;;;;9.30;8.40;;;13.90;99.90;;;;;;5016222;28;20214;-75
2021/08/30 02:27:25;;;;;;;9.03;8.13;;;13.90;99.90;;;;;;5016333;28;20170;-75
2021/08/30 02:30:08;;;;;;;10.50;8.63;;;13.90;99.90;;;;;;5016001;28;20209;-75
2021/08/30 02:32:36;;;;;;;10.83;9.10;;;13.90;99.90;;;;;;4998364;28;20198;-75
2021/08/30 02:35:04;;;;;;;10.23;9.13;;;13.90;99.90;;;;;;4998353;28;20168;-75
2021/08/30 02:37:32;;;;;;;10.53;8.90;;;13.90;99.90;;;;;;5016008;28;20202;-75
2021/08/30 02:40:00;;;;;;;10.07;9.10;;;13.90;99.90;;;;;;4998258;28;20202;-76
2021/08/30 02:42:29;;;;;;;10.43;9.50;;;14.00;99.90;;;;;;4998295;28;20266;-76
2021/08/30 02:44:56;;;;;;;9.93;9.03;;;14.00;99.90;;;;;;5015369;28;20167;-76
2021/08/30 02:47:23;;;;;;;10.90;9.90;;;13.90;99.90;;;;;;5015859;28;20208;-76
2021/08/30 02:49:51;;;;;;;10.83;9.83;;;13.90;99.90;;;;;;4998155;28;20548;-75
2021/08/30 02:52:19;;;;;;;9.40;8.43;;;13.90;99.90;;;;;;5015609;28;20726;-77
2021/08/30 02:54:46;;;;;;;10.23;9.27;;;14.00;99.90;;;;;;4998157;28;20171;-75
2021/08/30 02:57:13;;;;;;;11.60;9.17;;;13.90;99.90;;;;;;5015622;28;20572;-77
2021/08/30 02:59:39;;;;;;;9.43;8.53;;;14.00;99.90;;;;;;5014440;28;20199;-77
2021/08/30 03:02:05;;;;;;;9.87;9.00;;;14.00;99.90;;;;;;5014543;28;20182;-76
2021/08/30 03:04:32;;;;;;;11.20;10.00;;;13.90;99.90;;;;;;5014801;28;20226;-76
2021/08/30 03:06:59;;;;;;;11.53;9.83;;;13.90;99.90;;;;;;4997053;28;20695;-77
2021/08/30 03:09:25;;;;;;;12.10;9.97;;;13.90;99.90;;;;;;5014525;28;20218;-75
2021/08/30 03:11:53;;;;;;;10.77;9.77;;;13.80;99.90;;;;;;5013564;28;20207;-76
2021/08/30 03:14:23;;;;;;;10.53;9.53;;;13.90;99.90;;;;;;5016321;28;20175;-77
2021/08/30 03:16:51;;;;;;;11.20;9.63;;;13.90;99.90;;;;;;4999026;28;20180;-77
2021/08/30 03:19:18;;;;;;;10.30;9.30;;;13.90;99.90;;;;;;5014134;28;20254;-76
2021/08/30 03:21:46;;;;;;;10.97;9.87;;;13.90;99.90;;;;;;4996372;28;20695;-77
2021/08/30 03:24:13;;;;;;;10.30;9.30;;;13.90;99.90;;;;;;5013875;28;20270;-77
2021/08/30 03:26:40;;;;;;;10.43;9.37;;;13.80;99.90;;;;;;5013829;28;20176;-77
2021/08/30 03:29:07;;;;;;;11.10;10.00;;;13.90;99.90;;;;;;5013710;28;20254;-76
2021/08/30 03:31:34;;;;;;;10.33;9.40;;;13.80;99.90;;;;;;5013422;28;20218;-76
2021/08/30 03:34:02;;;;;;;9.97;8.90;;;13.80;99.90;;;;;;5013667;28;20178;-76
2021/08/30 03:36:29;;;;;;;10.10;8.83;;;13.80;99.90;;;;;;5013549;28;20167;-76
2021/08/30 03:38:57;;;;;;;12.50;9.43;;;13.80;99.90;;;;;;5013570;28;20554;-77
2021/08/30 03:41:25;;;;;;;11.03;9.63;;;13.90;99.90;;;;;;5013448;28;20205;-77
2021/08/30 03:43:52;;;;;;;10.10;9.20;;;13.90;99.90;;;;;;5013501;28;20183;-77
2021/08/30 03:46:18;;;;;;;9.60;8.70;;;13.90;99.90;;;;;;5013456;28;20260;-77
2021/08/30 03:48:44;;;;;;;11.83;8.93;;;13.90;99.90;;;;;;4995818;28;20604;-76
2021/08/30 03:51:10;;;;;;;9.33;8.20;;;13.90;99.90;;;;;;5013254;28;20195;-75
2021/08/30 03:53:38;;;;;;;9.53;8.63;;;13.90;99.90;;;;;;5011209;28;20193;-76
2021/08/30 03:56:04;;;;;;;9.20;8.40;;;13.90;99.90;;;;;;5013414;28;20175;-76
2021/08/30 03:58:31;;;;;;;8.13;7.43;;;13.80;99.90;;;;;;4996841;28;20229;-76
2021/08/30 04:01:03;;;;;;;7.43;6.83;;;13.80;99.90;;;;;;5012569;28;20211;-76
2021/08/30 04:03:33;;;;;;;7.43;6.70;;;13.70;99.90;;;;;;5019449;28;20179;-75
2021/08/30 04:05:59;;;;;;;7.40;6.27;;;13.70;99.90;;;;;;5013668;28;20661;-76
2021/08/30 04:08:24;;;;;;;8.07;7.23;;;13.70;99.90;;;;;;5012840;28;20179;-77
2021/08/30 04:10:50;;;;;;;7.50;6.80;;;13.70;99.90;;;;;;4995399;28;20194;-76
2021/08/30 04:13:16;;;;;;;7.50;6.80;;;13.70;99.90;;;;;;5014406;28;20689;-76
2021/08/30 04:15:41;;;;;;;7.73;7.03;;;13.80;99.90;;;;;;5013257;28;20183;-76
2021/08/30 04:18:07;;;;;;;6.70;6.10;;;13.80;99.90;;;;;;5014120;28;20218;-76
2021/08/30 04:20:33;;;;;;;7.10;6.40;;;13.70;99.90;;;;;;5014023;28;20712;-76
2021/08/30 04:22:58;;;;;;;7.17;6.47;;;13.80;99.90;;;;;;5013996;28;20194;-76
2021/08/30 04:25:24;;;;;;;7.83;7.03;;;13.80;99.90;;;;;;5014033;28;20175;-75
2021/08/30 04:27:50;;;;;;;7.90;7.20;;;13.80;99.90;;;;;;4996585;28;20567;-76
2021/08/30 04:30:15;;;;;;;9.10;8.20;;;13.80;99.90;;;;;;5013838;28;20198;-75
2021/08/30 04:32:41;;;;;;;9.40;8.30;;;13.80;99.90;;;;;;5013875;28;20210;-76
2021/08/30 04:35:08;;;;;;;10.70;9.13;;;13.80;99.90;;;;;;5013763;28;20167;-76
2021/08/30 04:37:34;;;;;;;10.47;9.47;;;13.80;99.90;;;;;;4996230;28;20178;-75
2021/08/30 04:39:59;;;;;;;10.23;8.83;;;13.80;99.90;;;;;;4995976;28;20195;-76
2021/08/30 04:42:25;;;;;;;10.27;9.23;;;13.80;99.90;;;;;;5013794;28;20221;-76
2021/08/30 04:44:51;;;;;;;10.73;9.63;;;13.70;99.90;;;;;;5013749;28;20181;-76
2021/08/30 04:47:17;;;;;;;10.60;9.47;;;13.70;99.90;;;;;;5013737;28;20171;-76
2021/08/30 04:49:43;;;;;;;10.80;9.70;;;13.70;99.90;;;;;;5013651;28;20698;-76
2021/08/30 04:52:08;;;;;;;10.83;9.77;;;13.80;99.90;;;;;;5013617;28;20199;-75
2021/08/30 04:54:34;;;;;;;10.30;9.40;;;13.80;99.90;;;;;;4996456;28;20167;-75
2021/08/30 04:57:00;;;;;;;10.73;9.63;;;13.70;99.90;;;;;;4995565;28;20177;-77
2021/08/30 04:59:26;;;;;;;11.37;10.23;;;13.70;99.90;;;;;;5013189;28;20252;-77
2021/08/30 05:01:51;;;;;;;10.70;9.57;;;13.70;99.90;;;;;;5013475;28;20234;-76
2021/08/30 05:04:17;;;;;;;11.50;10.40;;;13.70;99.90;;;;;;4994391;28;20178;-77
2021/08/30 05:06:43;;;;;;;11.00;10.10;;;13.70;99.90;;;;;;5012000;28;20265;-76
2021/08/30 05:09:08;;;;;;;11.50;10.03;;;13.80;99.90;;;;;;5011849;28;20511;-76
2021/08/30 05:11:37;;;;;;;11.80;10.57;;;13.80;99.90;;;;;;5016136;28;20536;-76
2021/08/30 05:14:04;;;;;;;12.13;10.20;;;13.80;99.90;;;;;;5013361;28;20257;-77
2021/08/30 05:16:30;;;;;;;13.43;9.90;;;13.80;99.90;;;;;;5012913;28;20167;-76
2021/08/30 05:18:56;;;;;;;11.50;10.13;;;13.80;99.90;;;;;;5012687;28;20266;-76
2021/08/30 05:21:21;;;;;;;12.53;10.77;;;13.80;99.90;;;;;;5012529;28;20238;-77
2021/08/30 05:23:47;;;;;;;12.47;11.27;;;13.80;99.90;;;;;;5012736;28;20195;-77
2021/08/30 05:26:13;;;;;;;12.77;11.43;;;13.80;99.90;;;;;;5012684;28;20602;-76
2021/08/30 05:28:39;;;;;;;12.97;11.57;;;13.80;99.90;;;;;;5012733;28;20170;-76
2021/08/30 05:31:04;;;;;;;12.63;11.33;;;13.80;99.90;;;;;;5012408;28;20191;-77
2021/08/30 05:33:30;;;;;;;12.93;11.33;;;13.80;99.90;;;;;;5012528;28;20282;-76
2021/08/30 05:35:56;;;;;;;13.03;11.67;;;13.80;99.90;;;;;;4995047;28;20221;-77
2021/08/30 05:38:21;;;;;;;12.60;11.33;;;13.80;99.90;;;;;;5013125;28;20187;-76
2021/08/30 05:40:47;;;;;;;13.23;11.23;;;13.80;99.90;;;;;;5012345;28;20681;-76
2021/08/30 05:43:13;;;;;;;13.97;11.23;;;13.80;99.90;;;;;;5011902;28;20543;-77
2021/08/30 05:45:38;;;;;;;12.63;11.40;;;13.90;99.90;;;;;;5013108;28;20225;-76
2021/08/30 05:48:04;;;;;;;12.23;10.60;;;13.80;99.90;;;;;;5013167;28;20199;-76
2021/08/30 05:50:30;;;;;;;13.93;11.50;;;13.80;99.90;;;;;;5012938;28;20206;-77
2021/08/30 05:52:56;;;;;;;13.43;12.00;;;13.90;99.90;;;;;;5012863;28;20203;-76
2021/08/30 05:55:22;;;;;;;14.33;11.47;;;13.90;99.90;;;;;;5012645;28;20562;-76
2021/08/30 05:57:48;;;;;;;12.27;11.07;;;13.90;99.90;;;;;;4995245;28;20195;-79
2021/08/30 06:00:14;;;;;;;12.97;11.57;;;13.90;99.90;;;;;;5016027;28;20190;-78
2021/08/30 06:02:40;;;;;;;12.97;11.33;;;13.80;99.90;;;;;;4993669;28;20298;-78
2021/08/30 06:05:06;;;;;;;13.50;11.27;;;13.80;99.90;;;;;;4996664;28;20288;-78
2021/08/30 06:07:32;;;;;;;11.37;10.33;;;13.80;99.90;;;;;;5013908;28;20278;-78
2021/08/30 06:09:58;;;;;;;12.37;10.97;;;13.90;99.90;;;;;;5014042;28;20693;-77
2021/08/30 06:12:23;;;;;;;14.63;10.80;;;13.80;99.90;;;;;;5014840;28;20199;-77
2021/08/30 06:14:49;;;;;;;12.83;11.40;;;13.80;99.90;;;;;;4996455;28;20167;-77
2021/08/30 06:17:14;;;;;;;12.93;11.20;;;13.80;99.90;;;;;;5014007;28;20234;-78
2021/08/30 06:19:41;;;;;;;13.27;11.17;;;13.90;99.90;;;;;;4995663;28;20196;-78
2021/08/30 06:22:08;;;;;;;12.73;10.53;;;13.80;99.90;;;;;;5017434;28;20514;-78
2021/08/30 06:24:33;;;;;;;10.80;9.60;;;13.80;99.90;;;;;;5000126;28;20171;-77
2021/08/30 06:26:59;;;;;;;10.73;9.73;;;13.80;99.90;;;;;;5016877;28;20229;-78
2021/08/30 06:29:25;;;;;;;10.63;9.70;;;13.80;99.90;;;;;;5017334;28;20202;-77
2021/08/30 06:31:52;;;;;;;10.07;9.07;;;13.90;99.90;;;;;;4999156;28;20219;-78
2021/08/30 06:34:18;;;;;;;10.10;9.20;;;13.80;99.90;;;;;;5016888;28;20669;-77
2021/08/30 06:36:43;;;;;;;12.20;10.10;;;13.70;99.90;;;;;;5017113;28;20261;-77
2021/08/30 06:39:09;;;;;;;11.37;10.27;;;13.80;99.90;;;;;;5016826;28;20171;-77
2021/08/30 06:41:35;;;;;;;10.73;9.63;;;13.90;99.90;;;;;;4998525;28;20551;-77
2021/08/30 06:44:01;;;;;;;12.37;10.63;;;13.80;99.90;;;;;;5016587;28;20168;-77
2021/08/30 06:46:26;;;;;;;11.80;10.60;;;13.80;99.90;;;;;;4999303;28;20180;-77
2021/08/30 06:48:52;;;;;;;11.63;10.50;;;13.80;99.90;;;;;;5016994;28;20179;-78
2021/08/30 06:51:17;;;;;;;11.87;10.77;;;13.80;99.90;;;;;;5004863;28;20191;-77
2021/08/30 06:53:44;;;;;;;11.80;10.67;;;13.80;99.90;;;;;;5016674;28;20202;-77
2021/08/30 06:56:10;;;;;;;11.80;10.70;;;13.80;99.90;;;;;;4999149;28;20163;-77
2021/08/30 06:58:36;;;;;;;13.90;12.60;;;13.80;99.90;;;;;;4998113;28;20175;-77
2021/08/30 07:01:02;;;;;;;11.43;10.33;;;13.80;99.90;;;;;;4997554;28;20558;-77
2021/08/30 07:03:27;;;;;;;10.57;9.63;;;13.80;99.90;;;;;;5015796;28;20179;-78
2021/08/30 07:05:53;;;;;;;11.93;10.47;;;13.90;99.90;;;;;;5036272;28;20264;-83
2021/08/30 07:08:20;;;;;;;11.77;10.67;;;14.00;99.90;;;;;;5008616;28;20202;-83
2021/08/30 07:10:46;;;;;;;10.67;9.67;;;14.00;99.90;;;;;;5021470;28;20745;-83
2021/08/30 07:13:11;;;;;;;11.17;10.07;;;14.00;99.90;;;;;;5009300;28;20214;-83
2021/08/30 07:15:37;;;;;;;12.87;10.97;;;14.00;99.90;;;;;;5009055;28;20206;-83
2021/08/30 07:18:03;;;;;;;11.30;10.33;;;14.00;99.90;;;;;;5009547;28;20164;-83
2021/08/30 07:20:29;;;;;;;10.67;9.57;;;14.00;99.90;;;;;;5021360;23;20231;-83
2021/08/30 07:22:55;;;;;;;10.40;9.50;;;14.00;99.90;;;;;;5000743;28;20226;-84
2021/08/30 07:25:21;;;;;;;9.80;8.90;;;14.00;99.90;;;;;;5018408;28;20229;-83
2021/08/30 07:27:47;;;;;;;11.10;10.00;;;14.10;99.90;;;;;;5000484;28;20579;-84
2021/08/30 07:30:12;;;;;;;11.33;10.23;;;14.00;99.90;;;;;;5018103;28;20598;-83
2021/08/30 07:32:38;;;;;;;11.67;10.57;;;14.00;99.90;;;;;;5006427;28;20202;-83
2021/08/30 07:35:04;;;;;;;11.10;10.10;;;14.10;99.90;;;;;;5012414;28;20219;-83
2021/08/30 07:37:30;;;;;;;10.83;9.93;;;14.00;99.90;;;;;;4981952;28;20241;-84
2021/08/30 07:39:55;;;;;;;12.10;11.03;;;14.00;99.90;;;;;;5013140;28;20558;-84
2021/08/30 07:42:21;;;;;;;10.17;9.17;;;14.00;99.90;;;;;;5006877;28;20257;-84
2021/08/30 07:44:47;;;;;;;10.57;9.57;;;14.00;99.90;;;;;;5018462;28;20203;-83
2021/08/30 07:47:12;;;;;;;10.97;9.93;;;14.10;99.90;;;;;;5004134;28;20181;-84
2021/08/30 07:49:38;;;;;;;10.20;9.30;;;14.10;99.90;;;;;;4988650;28;20199;-81
2021/08/30 07:52:04;;;;;;;12.43;10.00;;;14.10;99.90;;;;;;5012072;28;20187;-83
2021/08/30 07:54:29;;;;;;;11.03;9.90;;;14.10;99.90;;;;;;5008467;28;20171;-82
2021/08/30 07:56:55;;;;;;;10.13;9.13;;;14.10;99.90;;;;;;5008814;28;20238;-83
2021/08/30 07:59:21;;;;;;;10.60;9.67;;;14.10;99.90;;;;;;4986999;28;20172;-83
2021/08/30 08:01:47;;;;;;;10.77;9.87;;;14.20;99.90;;;;;;4998145;28;20657;-83
2021/08/30 08:04:12;;;;;;;10.70;9.80;;;14.20;99.90;;;;;;4981138;28;20168;-83
2021/08/30 08:06:38;;;;;;;9.80;9.00;;;14.30;99.90;;;;;;4998429;28;20175;-84
2021/08/30 08:09:05;;;;;;;10.43;9.43;;;14.20;99.90;;;;;;4983906;28;20262;-83
2021/08/30 08:11:32;;;;;;;9.83;8.83;;;14.20;99.90;;;;;;5008940;28;20200;-83
2021/08/30 08:13:58;;;;;;;10.20;9.30;;;14.20;99.90;;;;;;4983931;28;20203;-83
2021/08/30 08:16:23;;;;;;;10.17;9.17;;;14.20;99.90;;;;;;5011241;28;20179;-83
2021/08/30 08:18:52;;;;;;;10.13;9.23;;;14.20;99.90;;;;;;4999037;28;20545;-82
2021/08/30 08:21:18;;;;;;;9.60;8.80;;;14.30;99.90;;;;;;4996509;28;20233;-83
2021/08/30 08:23:44;;;;;;;9.27;8.47;;;14.30;99.90;;;;;;4979223;28;20176;-83
2021/08/30 08:26:09;;;;;;;9.40;8.60;;;14.30;99.90;;;;;;5006200;28;20193;-83
2021/08/30 08:28:35;;;;;;;9.70;8.80;;;14.30;99.90;;;;;;4999445;28;20178;-84
2021/08/30 08:31:01;;;;;;;10.03;9.13;;;14.30;99.90;;;;;;4980572;28;20204;-83
2021/08/30 08:33:27;;;;;;;10.40;9.50;;;14.30;99.90;;;;;;4992522;28;20198;-83
2021/08/30 08:35:52;;;;;;;10.80;9.70;;;14.30;99.90;;;;;;5002115;28;20222;-83
2021/08/30 08:38:18;;;;;;;8.43;7.73;;;14.40;99.90;;;;;;4980448;28;20225;-83
2021/08/30 08:40:44;;;;;;;9.03;8.33;;;14.40;99.90;;;;;;4978718;28;20211;-83
2021/08/30 08:43:14;;;;;;;8.17;7.40;;;14.40;99.90;;;;;;4993243;28;20720;-82
2021/08/30 08:45:41;;;;;;;8.20;7.50;;;14.50;99.90;;;;;;4997695;28;20180;-83
2021/08/30 08:48:08;;;;;;;7.23;6.53;;;14.50;99.90;;;;;;4996209;28;20642;-82
2021/08/30 08:50:34;;;;;;;6.90;6.40;;;14.50;99.90;;;;;;4997998;28;20203;-82
2021/08/30 08:53:04;;;;;;;7.20;6.70;;;14.50;99.90;;;;;;4987511;28;20274;-82
2021/08/30 08:55:33;;;;;;;6.20;5.70;;;14.60;99.90;;;;;;4984334;28;20591;-82
2021/08/30 08:58:02;;;;;;;6.70;6.20;;;14.50;99.90;;;;;;5002685;28;20187;-82
2021/08/30 09:00:28;;;;;;;6.60;6.00;;;14.50;99.90;;;;;;4985459;28;20206;-82
2021/08/30 09:02:54;;;;;;;6.80;6.13;;;14.50;99.90;;;;;;4989266;28;20291;-82
2021/08/30 09:05:24;;;;;;;7.60;7.00;;;14.50;99.90;;;;;;4992057;28;20301;-82
2021/08/30 09:07:51;;;;;;;6.50;5.93;;;14.60;99.90;;;;;;4997207;28;20241;-83
2021/08/30 09:10:21;;;;;;;6.47;5.90;;;14.60;99.90;;;;;;4991771;28;20204;-83
2021/08/30 09:12:48;;;;;;;6.17;5.67;;;14.60;99.90;;;;;;4997486;28;20195;-83
2021/08/30 09:15:20;;;;;;;6.53;5.93;;;14.60;99.90;;;;;;4975829;28;20172;-83
2021/08/30 09:17:57;;;;;;;6.43;5.83;;;14.70;99.90;;;;;;4990120;28;20642;-83
2021/08/30 09:20:25;;;;;;;7.07;6.40;;;14.70;99.90;;;;;;4983231;28;20249;-82
2021/08/30 09:22:51;;;;;;;7.03;6.33;;;14.70;99.90;;;;;;4982437;28;20591;-83
2021/08/30 09:25:18;;;;;;;6.53;6.00;;;14.70;99.90;;;;;;4980083;28;20176;-83
2021/08/30 09:27:47;;;;;;;7.20;6.67;;;14.70;99.90;;;;;;4988858;28;20259;-83
2021/08/30 09:30:14;;;;;;;6.97;6.27;;;14.70;99.90;;;;;;5000258;28;20224;-83
2021/08/30 09:32:45;;;;;;;6.60;6.00;;;14.70;99.90;;;;;;4984703;28;20196;-83
2021/08/30 09:35:11;;;;;;;8.27;5.97;;;14.80;99.90;;;;;;4995788;28;20175;-83
2021/08/30 09:37:39;;;;;;;6.60;5.97;;;14.80;99.90;;;;;;4987885;28;20547;-83
2021/08/30 09:40:11;;;;;;;10.80;5.70;;;14.80;99.90;;;;;;4984225;28;20195;-83
2021/08/30 09:42:44;;;;;;;6.27;5.67;;;14.80;99.90;;;;;;4999432;28;20185;-84
2021/08/30 09:45:26;;;;;;;5.57;5.03;;;14.80;99.90;;;;;;4990302;28;20713;-83
2021/08/30 09:47:57;;;;;;;6.40;5.47;;;14.80;99.90;;;;;;4988096;28;20191;-83
2021/08/30 09:50:27;;;;;;;6.80;5.10;;;14.70;99.90;;;;;;4992029;28;20681;-83
2021/08/30 09:52:53;;;;;;;6.60;5.43;;;14.80;99.90;;;;;;4984222;28;20227;-83
2021/08/30 09:55:18;;;;;;;5.57;5.13;;;14.90;99.90;;;;;;5002784;28;20200;-83
2021/08/30 09:57:49;;;;;;;5.67;5.17;;;15.00;99.90;;;;;;4997872;28;20238;-83
2021/08/30 10:00:17;;;;;;;5.97;5.47;;;15.00;99.90;;;;;;4994328;28;20270;-83
2021/08/30 10:02:46;;;;;;;6.10;5.60;;;15.00;99.90;;;;;;4994477;28;20180;-84
2021/08/30 10:05:14;;;;;;;6.70;6.10;;;15.10;99.90;;;;;;4995820;28;20185;-83
2021/08/30 10:07:40;;;;;;;6.07;5.67;;;15.20;99.90;;;;;;4975097;28;20191;-83
2021/08/30 10:10:07;;;;;;;6.63;6.03;;;15.30;99.90;;;;;;4980730;28;20219;-83
2021/08/30 10:12:32;;;;;;;6.30;5.80;;;15.40;99.90;;;;;;4996987;28;20200;-84
2021/08/30 10:14:59;;;;;;;6.40;5.80;;;15.40;99.90;;;;;;4995953;28;20263;-83
2021/08/30 10:17:25;;;;;;;6.27;5.77;;;15.40;99.90;;;;;;4992704;28;20263;-83
2021/08/30 10:20:01;;;;;;;6.03;5.53;;;15.50;99.90;;;;;;4984667;28;20234;-84
2021/08/30 10:22:27;;;;;;;5.97;5.47;;;15.60;99.90;;;;;;5000162;28;20222;-83
2021/08/30 10:24:53;;;;;;;5.30;4.80;;;15.70;99.90;;;;;;5000153;28;20271;-83
2021/08/30 10:27:31;;;;;;;5.40;5.00;;;15.70;99.90;;;;;;4978277;28;20211;-83
2021/08/30 10:30:23;;;;;;;5.20;4.80;;;15.70;99.90;;;;;;4997562;28;20256;-83
2021/08/30 10:32:54;;;;;;;6.00;4.43;;;15.80;99.90;;;;;;4993675;28;20748;-82
2021/08/30 10:35:24;;;;;;;4.47;4.07;;;15.90;99.90;;;;;;4992349;28;20312;-82
2021/08/30 10:37:52;;;;;;;4.23;3.93;;;15.90;99.90;;;;;;4995543;28;20176;-83
2021/08/30 10:40:20;;;;;;;5.73;4.07;;;16.00;99.90;;;;;;4996291;28;20615;-82
2021/08/30 10:42:57;;;;;;;4.00;3.70;;;16.10;99.90;;;;;;4997344;28;20179;-82
2021/08/30 10:45:36;;;;;;;3.67;3.37;;;16.10;99.90;;;;;;4997605;28;20180;-83
2021/08/30 10:48:05;;;;;;;3.60;3.30;;;16.10;99.90;;;;;;4987384;28;20643;-82
2021/08/30 10:50:31;;;;;;;3.50;3.20;;;16.10;99.90;;;;;;4995052;28;20206;-83
2021/08/30 10:53:09;;;;;;;5.43;3.80;;;16.10;99.90;;;;;;4972678;28;20203;-82
2021/08/30 10:55:40;;;;;;;5.27;3.70;;;16.20;99.90;;;;;;4996556;28;20204;-82
2021/08/30 10:58:17;;;;;;;4.90;3.63;;;16.20;99.90;;;;;;4976799;28;20839;-83
2021/08/30 11:00:43;;;;;;;3.60;3.30;;;16.20;99.90;;;;;;4999106;28;20281;-82
2021/08/30 11:03:09;;;;;;;3.73;3.43;;;16.20;99.90;;;;;;4991628;28;20599;-82
2021/08/30 11:05:35;;;;;;;3.57;3.30;;;16.20;99.90;;;;;;5000139;28;20220;-82
2021/08/30 11:08:02;;;;;;;4.07;3.77;;;16.20;99.90;;;;;;4979345;28;20188;-82
2021/08/30 11:10:29;;;;;;;4.50;4.10;;;16.10;99.90;;;;;;4994108;28;20228;-83
2021/08/30 11:12:56;;;;;;;6.37;4.07;;;16.10;99.90;;;;;;4986989;28;20572;-82
2021/08/30 11:15:22;;;;;;;3.83;3.30;;;16.20;99.90;;;;;;4985125;28;20213;-82
2021/08/30 11:17:47;;;;;;;3.23;3.03;;;16.20;99.90;;;;;;4986804;28;20182;-83
2021/08/30 11:20:17;;;;;;;3.70;3.40;;;16.20;99.90;;;;;;4975110;28;20625;-83
2021/08/30 11:22:53;;;;;;;3.70;3.40;;;16.30;99.90;;;;;;4977599;28;20188;-83
2021/08/30 11:25:19;;;;;;;4.30;3.10;;;16.50;99.90;;;;;;5000280;28;20587;-82
2021/08/30 11:27:45;;;;;;;3.30;3.03;;;16.60;99.90;;;;;;4990549;28;20224;-82
2021/08/30 11:30:13;;;;;;;2.40;2.20;;;16.80;99.90;;;;;;4983993;28;20688;-83
2021/08/30 11:32:41;;;;;;;4.10;3.60;;;16.90;99.90;;;;;;4993258;28;20208;-83
2021/08/30 11:35:14;;;;;;;8.27;5.17;;;16.90;99.90;;;;;;4982239;28;20184;-84
2021/08/30 11:37:40;;;;;;;15.43;8.63;;;16.90;99.90;;;;;;4995366;28;20176;-83
2021/08/30 11:40:09;;;;;;;10.57;6.27;;;16.80;99.90;;;;;;5000110;28;20199;-83
2021/08/30 11:42:36;;;;;;;9.67;5.70;;;16.70;99.90;;;;;;4994436;28;20189;-84
2021/08/30 11:45:05;;;;;;;5.33;4.40;;;16.50;99.90;;;;;;4995519;28;20193;-85
2021/08/30 11:47:30;;;;;;;4.43;4.03;;;16.50;99.90;;;;;;4978176;28;20370;-84
2021/08/30 11:50:02;;;;;;;3.93;3.63;;;16.40;99.90;;;;;;4995052;28;20299;-84
2021/08/30 11:52:31;;;;;;;3.90;3.60;;;16.40;99.90;;;;;;4995378;28;20201;-84
2021/08/30 11:55:12;;;;;;;4.63;4.20;;;16.30;99.90;;;;;;4975075;28;20242;-84
2021/08/30 11:58:03;;;;;;;3.87;3.57;;;16.30;99.90;;;;;;4992400;28;20271;-84
2021/08/30 12:00:29;;;;;;;4.87;3.77;;;16.30;99.90;;;;;;4982262;28;20285;-84
2021/08/30 12:03:00;;;;;;;4.33;2.90;;;16.30;99.90;;;;;;4993345;28;20180;-84
2021/08/30 12:05:31;;;;;;;5.77;3.83;;;16.30;99.90;;;;;;4997176;28;20195;-84
2021/08/30 12:07:58;;;;;;;4.53;4.13;;;16.40;99.90;;;;;;4998403;28;20187;-85
2021/08/30 12:10:26;;;;;;;4.47;4.17;;;16.40;99.90;;;;;;4993423;28;20206;-84
2021/08/30 12:15:26;;;;;;;6.00;5.50;;;16.50;99.90;;;;;;4989655;28;20666;-84
2021/08/30 12:17:55;;;;;;;5.97;5.47;;;16.50;99.90;;;;;;4979062;28;20184;-84
2021/08/30 12:20:32;;;;;;;5.10;4.70;;;16.60;99.90;;;;;;4999350;28;20241;-84
2021/08/30 12:23:04;;;;;;;4.43;4.10;;;16.60;99.90;;;;;;4996910;28;20184;-84
2021/08/30 12:25:38;;;;;;;5.33;4.90;;;16.60;99.90;;;;;;4997797;28;20190;-83
2021/08/30 12:28:06;;;;;;;5.10;4.70;;;16.70;99.90;;;;;;4992992;28;20189;-84
2021/08/30 12:30:46;;;;;;;5.30;4.90;;;16.70;99.90;;;;;;4998510;28;20262;-84
2021/08/30 12:33:19;;;;;;;4.97;4.53;;;16.70;99.90;;;;;;4975445;28;20586;-84
2021/08/30 12:35:50;;;;;;;3.97;3.67;;;16.70;99.90;;;;;;4976039;28;20174;-84
2021/08/30 12:38:24;;;;;;;4.43;3.83;;;16.70;99.90;;;;;;4990925;28;20256;-84
2021/08/30 12:40:59;;;;;;;4.27;3.93;;;16.70;99.90;;;;;;4999050;28;20214;-84
2021/08/30 12:43:25;;;;;;;3.73;3.53;;;16.70;99.90;;;;;;4999029;28;20189;-84
2021/08/30 12:45:52;;;;;;;4.70;4.30;;;16.50;99.90;;;;;;4987844;28;20234;-85
2021/08/30 12:48:19;;;;;;;5.47;4.97;;;16.50;99.90;;;;;;4994489;28;20232;-84